Time;durP1;ratioP1;P1;durP2;ratioP2;P2;SDS_P1;SDS_P2;PMS_P1;PMS_P2;Temp;Humidity;BMP_temperature;BMP_pressure;BME280_temperature;BME280_humidity;BME280_pressure;Samples;Min_cycle;Max_cycle;Signal;HPM_P1;HPM_P2
2022/04/29 00:00:38;;;;;;;1.00;1.00;;;23.20;58.40;;;;;;5049106;28;20414;-66
2022/04/29 00:03:07;;;;;;;0.77;0.77;;;23.10;56.70;;;;;;5051599;28;20433;-66
2022/04/29 00:05:34;;;;;;;1.00;1.00;;;;;;;;;;5050822;28;20468;-66
2022/04/29 00:08:00;;;;;;;0.93;0.93;;;;;;;;;;5051965;28;20805;-66
2022/04/29 00:10:26;;;;;;;0.80;0.80;;;;;;;;;;5048179;28;20468;-66
2022/04/29 00:12:53;;;;;;;1.20;1.20;;;;;;;;;;5049085;28;20398;-66
2022/04/29 00:15:19;;;;;;;1.57;1.13;;;;;;;;;;5049765;28;20422;-66
2022/04/29 00:17:45;;;;;;;0.70;0.70;;;;;;;;;;5048945;28;20446;-66
2022/04/29 00:20:12;;;;;;;2.07;0.90;;;23.10;55.20;;;;;;5049494;28;20560;-66
2022/04/29 00:22:38;;;;;;;0.90;0.90;;;;;;;;;;5048767;28;20418;-66
2022/04/29 00:25:04;;;;;;;1.20;1.10;;;;;;;;;;5054825;28;20449;-66
2022/04/29 00:27:30;;;;;;;1.00;1.00;;;;;;;;;;5050170;28;20509;-66
2022/04/29 00:29:56;;;;;;;0.80;0.80;;;;;;;;;;5048587;28;20425;-66
2022/04/29 00:32:22;;;;;;;0.87;0.87;;;;;;;;;;5049077;28;20410;-66
2022/04/29 00:34:49;;;;;;;0.90;0.90;;;23.10;55.40;;;;;;5049413;28;20429;-66
2022/04/29 00:37:15;;;;;;;0.90;0.90;;;;;;;;;;5048879;28;20423;-66
2022/04/29 00:39:41;;;;;;;1.10;1.10;;;;;;;;;;5049047;28;20491;-66
2022/04/29 00:42:15;;;;;;;0.80;0.80;;;23.00;53.10;;;;;;5049218;28;20903;-66
2022/04/29 00:44:42;;;;;;;1.10;1.10;;;23.10;58.40;;;;;;5050141;28;20466;-66
2022/04/29 00:47:13;;;;;;;0.97;0.97;;;23.10;53.10;;;;;;5048730;28;20459;-66
2022/04/29 00:49:40;;;;;;;1.17;0.87;;;;;;;;;;5048911;28;20434;-66
2022/04/29 00:52:08;;;;;;;1.20;1.20;;;23.00;58.80;;;;;;5048847;28;20413;-66
2022/04/29 00:54:37;;;;;;;0.70;0.70;;;22.80;58.30;;;;;;5046475;28;20426;-66
2022/04/29 00:57:07;;;;;;;1.00;1.00;;;23.00;58.60;;;;;;5048726;28;20429;-66
2022/04/29 00:59:42;;;;;;;0.73;0.73;;;23.20;53.20;;;;;;5045956;28;20447;-66
2022/04/29 01:02:09;;;;;;;0.80;0.80;;;23.10;58.80;;;;;;5048874;28;20414;-66
2022/04/29 01:04:46;;;;;;;0.90;0.90;;;23.10;53.30;;;;;;5049713;28;20549;-66
2022/04/29 01:07:12;;;;;;;1.07;1.07;;;;;;;;;;5051690;28;20422;-66
2022/04/29 01:09:38;;;;;;;1.07;1.07;;;;;;;;;;5048623;28;20625;-66
2022/04/29 01:12:04;;;;;;;1.50;1.40;;;;;;;;;;5049771;28;20490;-66
2022/04/29 01:14:30;;;;;;;1.03;0.93;;;;;;;;;;5048706;28;20414;-66
2022/04/29 01:16:58;;;;;;;1.10;1.10;;;;;;;;;;5050316;28;20433;-66
2022/04/29 01:19:24;;;;;;;1.20;1.20;;;;;;;;;;5049893;28;20454;-66
2022/04/29 01:21:51;;;;;;;1.00;1.00;;;23.00;58.80;;;;;;5048523;28;20899;-66
2022/04/29 01:24:17;;;;;;;1.00;0.90;;;;;;;;;;5048568;28;20528;-66
2022/04/29 01:26:43;;;;;;;1.00;1.00;;;;;;;;;;5049207;28;20804;-66
2022/04/29 01:29:09;;;;;;;0.80;0.80;;;;;;;;;;5048351;28;20418;-66
2022/04/29 01:31:38;;;;;;;1.20;1.20;;;23.00;58.40;;;;;;5048467;28;20180;-66
2022/04/29 01:34:04;;;;;;;1.13;0.97;;;;;;;;;;5049923;28;20414;-66
2022/04/29 01:36:30;;;;;;;1.10;1.10;;;;;;;;;;5052306;28;20454;-66
2022/04/29 01:38:56;;;;;;;0.80;0.80;;;;;;;;;;5054673;28;21000;-66
2022/04/29 01:41:22;;;;;;;1.07;1.07;;;;;;;;;;5052489;28;20653;-66
2022/04/29 01:43:48;;;;;;;1.03;1.03;;;;;;;;;;5052129;28;20438;-66
2022/04/29 01:46:14;;;;;;;1.13;1.13;;;;;;;;;;5053431;28;20450;-66
2022/04/29 01:48:40;;;;;;;1.03;1.03;;;;;;;;;;5051954;28;20199;-66
2022/04/29 01:51:06;;;;;;;1.37;1.27;;;;;;;;;;5052029;28;20429;-66
2022/04/29 01:53:33;;;;;;;1.27;1.17;;;23.00;63.80;;;;;;5051710;28;20243;-66
2022/04/29 01:55:59;;;;;;;1.00;1.00;;;;;;;;;;5052559;28;20191;-66
2022/04/29 01:58:25;;;;;;;0.93;0.93;;;;;;;;;;5051581;28;20453;-66
2022/04/29 02:00:51;;;;;;;0.90;0.90;;;;;;;;;;5051389;28;20449;-66
2022/04/29 02:03:17;;;;;;;0.83;0.83;;;;;;;;;;5051298;28;20180;-66
2022/04/29 02:05:44;;;;;;;1.00;1.00;;;;;;;;;;5055096;28;20204;-66
2022/04/29 02:08:10;;;;;;;0.80;0.80;;;;;;;;;;5051228;28;20457;-66
2022/04/29 02:10:36;;;;;;;0.90;0.90;;;;;;;;;;5051423;28;20903;-66
2022/04/29 02:13:02;;;;;;;1.03;1.03;;;;;;;;;;5051268;28;20415;-66
2022/04/29 02:15:28;;;;;;;1.10;1.10;;;;;;;;;;5054014;28;20860;-66
2022/04/29 02:17:54;;;;;;;0.83;0.83;;;;;;;;;;5050546;28;20431;-66
2022/04/29 02:20:21;;;;;;;0.90;0.90;;;;;;;;;;5051030;28;20752;-66
2022/04/29 02:22:47;;;;;;;1.00;1.00;;;;;;;;;;5051202;28;20180;-66
2022/04/29 02:25:13;;;;;;;0.90;0.90;;;;;;;;;;5053560;28;20508;-66
2022/04/29 02:27:39;;;;;;;0.97;0.97;;;;;;;;;;5050887;28;20846;-66
2022/04/29 02:30:05;;;;;;;0.90;0.90;;;22.70;68.10;;;;;;5050939;28;20503;-66
2022/04/29 02:32:32;;;;;;;0.65;0.65;;;22.90;57.00;;;;;;5051114;28;20263;-66
2022/04/29 02:35:00;;;;;;;0.93;0.87;;;;;;;;;;5051295;28;20514;-66
2022/04/29 02:37:27;;;;;;;0.93;0.93;;;;;;;;;;5050604;28;20930;-66
2022/04/29 02:39:53;;;;;;;0.70;0.70;;;;;;;;;;5051097;28;20430;-66
2022/04/29 02:42:19;;;;;;;1.07;1.07;;;;;;;;;;5050777;28;20422;-66
2022/04/29 02:44:45;;;;;;;0.83;0.83;;;;;;;;;;5050819;28;20981;-66
2022/04/29 02:47:11;;;;;;;0.90;0.90;;;;;;;;;;5061147;28;20447;-66
2022/04/29 02:49:42;;;;;;;0.90;0.90;;;22.70;58.50;;;;;;5050978;28;20796;-66
2022/04/29 02:52:09;;;;;;;0.90;0.90;;;23.00;65.40;;;;;;5050780;28;20407;-66
2022/04/29 02:54:35;;;;;;;0.90;0.90;;;;;;;;;;5044186;28;20863;-66
2022/04/29 02:57:01;;;;;;;0.80;0.80;;;;;;;;;;5053690;28;20652;-66
2022/04/29 02:59:27;;;;;;;1.43;1.40;;;;;;;;;;5050474;28;20499;-66
2022/04/29 03:01:53;;;;;;;0.80;0.80;;;;;;;;;;5050418;28;20880;-66
2022/04/29 03:04:19;;;;;;;0.97;0.97;;;;;;;;;;5050490;28;20488;-66
2022/04/29 03:06:45;;;;;;;0.90;0.90;;;;;;;;;;5052065;28;20433;-66
2022/04/29 03:09:11;;;;;;;1.10;1.10;;;;;;;;;;5050521;28;20434;-66
2022/04/29 03:11:37;;;;;;;1.10;1.10;;;;;;;;;;5050815;28;20431;-67
2022/04/29 03:14:04;;;;;;;0.90;0.90;;;;;;;;;;5051317;28;20513;-66
2022/04/29 03:16:29;;;;;;;0.83;0.83;;;;;;;;;;5049812;28;20567;-66
2022/04/29 03:18:56;;;;;;;1.30;1.20;;;;;;;;;;5050335;28;20552;-67
2022/04/29 03:21:22;;;;;;;0.80;0.80;;;;;;;;;;5045526;28;20414;-66
2022/04/29 03:23:48;;;;;;;0.90;0.90;;;;;;;;;;5050430;28;20176;-66
2022/04/29 03:26:14;;;;;;;1.20;1.20;;;;;;;;;;5047747;28;20419;-66
2022/04/29 03:28:40;;;;;;;2.10;1.20;;;;;;;;;;5050862;28;20452;-66
2022/04/29 03:31:06;;;;;;;0.93;0.93;;;;;;;;;;5049930;28;20407;-66
2022/04/29 03:33:32;;;;;;;1.40;1.30;;;;;;;;;;5050425;28;20477;-66
2022/04/29 03:35:58;;;;;;;0.93;0.93;;;;;;;;;;5049969;28;20496;-66
2022/04/29 03:38:25;;;;;;;0.90;0.90;;;23.10;58.20;;;;;;5050011;28;20479;-66
2022/04/29 03:40:51;;;;;;;1.73;1.57;;;;;;;;;;5049309;28;20453;-66
2022/04/29 03:43:17;;;;;;;1.27;1.27;;;;;;;;;;5050027;28;20411;-66
2022/04/29 03:45:43;;;;;;;1.23;1.23;;;;;;;;;;5049724;28;20795;-66
2022/04/29 03:48:09;;;;;;;1.20;1.20;;;;;;;;;;5049506;28;20427;-66
2022/04/29 03:50:35;;;;;;;0.97;0.97;;;;;;;;;;5049945;28;20500;-66
2022/04/29 03:53:03;;;;;;;0.73;0.73;;;23.00;68.10;;;;;;5056931;28;20780;-66
2022/04/29 03:55:31;;;;;;;0.80;0.80;;;23.00;58.80;;;;;;5049852;28;20509;-66
2022/04/29 03:57:57;;;;;;;1.40;1.30;;;22.70;58.80;;;;;;5049183;28;20168;-67
2022/04/29 04:00:25;;;;;;;1.10;1.10;;;22.90;59.00;;;;;;5050288;28;20770;-66
2022/04/29 04:02:51;;;;;;;1.23;1.20;;;;;;;;;;5050187;28;20421;-66
2022/04/29 04:05:17;;;;;;;0.90;0.90;;;22.90;55.30;;;;;;5051954;28;20486;-66
2022/04/29 04:07:44;;;;;;;1.07;1.07;;;22.90;58.00;;;;;;5059570;28;20911;-67
2022/04/29 04:10:10;;;;;;;0.97;0.97;;;;;;;;;;5050325;28;20576;-66
2022/04/29 04:12:41;;;;;;;1.00;1.00;;;22.90;53.30;;;;;;5051512;28;20518;-66
2022/04/29 04:15:08;;;;;;;1.03;1.03;;;22.90;57.10;;;;;;5050104;28;20835;-66
2022/04/29 04:17:34;;;;;;;1.00;1.00;;;;;;;;;;5049891;28;20570;-66
2022/04/29 04:20:00;;;;;;;1.13;1.13;;;;;;;;;;5050154;28;20441;-66
2022/04/29 04:22:27;;;;;;;1.20;1.20;;;;;;;;;;5055188;28;20421;-66
2022/04/29 04:24:53;;;;;;;0.90;0.90;;;;;;;;;;5069829;28;20518;-66
2022/04/29 04:27:19;;;;;;;1.20;1.10;;;;;;;;;;5069834;28;20417;-66
2022/04/29 04:29:45;;;;;;;1.20;1.20;;;;;;;;;;5070100;28;20426;-66
2022/04/29 04:32:11;;;;;;;0.97;0.97;;;;;;;;;;5068356;28;20416;-67
2022/04/29 04:34:53;;;;;;;0.90;0.90;;;;;;;;;;5050123;28;20410;-66
2022/04/29 04:37:24;;;;;;;0.90;0.90;;;23.40;59.10;;;;;;5069627;28;20914;-66
2022/04/29 04:39:51;;;;;;;0.80;0.80;;;;;;;;;;5069813;28;20439;-66
2022/04/29 04:42:17;;;;;;;1.10;1.10;;;22.90;56.20;;;;;;5068491;28;20485;-67
2022/04/29 04:44:44;;;;;;;0.90;0.90;;;;;;;;;;5049903;28;20507;-67
2022/04/29 04:47:10;;;;;;;1.10;1.10;;;;;;;;;;5049719;28;20410;-67
2022/04/29 04:49:36;;;;;;;0.80;0.80;;;;;;;;;;5049644;28;20453;-67
2022/04/29 04:52:02;;;;;;;1.00;1.00;;;;;;;;;;5049565;28;20449;-66
2022/04/29 04:54:28;;;;;;;1.00;1.00;;;;;;;;;;5049916;28;20520;-66
2022/04/29 04:56:54;;;;;;;0.90;0.90;;;;;;;;;;5049632;28;21242;-66
2022/04/29 04:59:20;;;;;;;1.07;1.07;;;;;;;;;;5050069;28;20533;-66
2022/04/29 05:01:46;;;;;;;1.20;1.10;;;;;;;;;;5057698;28;20850;-67
2022/04/29 05:04:12;;;;;;;0.93;0.93;;;;;;;;;;5069670;28;20453;-67
2022/04/29 05:06:38;;;;;;;1.03;1.03;;;;;;;;;;5057203;28;20795;-66
2022/04/29 05:09:04;;;;;;;0.90;0.90;;;;;;;;;;5055317;28;20293;-66
2022/04/29 05:11:30;;;;;;;0.93;0.93;;;;;;;;;;5055979;28;20417;-66
2022/04/29 05:13:57;;;;;;;1.13;1.13;;;;;;;;;;5060291;28;20261;-66
2022/04/29 05:16:23;;;;;;;1.07;1.07;;;;;;;;;;5052801;28;20464;-66
2022/04/29 05:18:49;;;;;;;0.90;0.90;;;;;;;;;;5054575;28;20441;-66
2022/04/29 05:21:15;;;;;;;0.87;0.87;;;;;;;;;;5066580;28;20406;-66
2022/04/29 05:23:42;;;;;;;1.13;1.13;;;22.90;58.60;;;;;;5053085;28;20443;-66
2022/04/29 05:26:08;;;;;;;1.10;1.10;;;;;;;;;;5056816;28;20426;-66
2022/04/29 05:28:34;;;;;;;0.97;0.97;;;;;;;;;;5053372;28;20437;-66
2022/04/29 05:31:00;;;;;;;0.90;0.90;;;;;;;;;;5053248;28;20409;-66
2022/04/29 05:33:26;;;;;;;1.07;1.07;;;;;;;;;;5065195;28;20930;-66
2022/04/29 05:35:53;;;;;;;1.40;1.30;;;22.90;68.20;;;;;;5073131;28;20435;-66
2022/04/29 05:38:19;;;;;;;1.25;1.25;;;;;;;;;;5072451;28;20445;-67
2022/04/29 05:43:30;;;;;;;0.97;0.97;;;;;;;;;;5058866;28;20781;-67
2022/04/29 05:45:56;;;;;;;0.90;0.90;;;;;;;;;;5072575;28;20465;-66
2022/04/29 05:48:22;;;;;;;1.00;1.00;;;;;;;;;;5069226;28;20279;-67
2022/04/29 05:50:48;;;;;;;0.80;0.80;;;;;;;;;;5072752;28;20180;-66
2022/04/29 05:53:15;;;;;;;1.10;1.10;;;;;;;;;;5072564;28;20458;-66
2022/04/29 05:55:41;;;;;;;0.90;0.90;;;;;;;;;;5072473;28;20404;-66
2022/04/29 05:58:07;;;;;;;1.05;1.05;;;;;;;;;;5059521;28;20438;-68
2022/04/29 06:00:33;;;;;;;2.17;1.25;;;;;;;;;;5051053;28;20648;-67
2022/04/29 06:02:59;;;;;;;1.17;1.10;;;;;;;;;;5054337;28;20176;-67
2022/04/29 06:05:25;;;;;;;1.70;1.60;;;;;;;;;;5050109;28;20250;-67
2022/04/29 06:07:51;;;;;;;1.30;1.20;;;;;;;;;;5057340;28;20426;-67
2022/04/29 06:10:17;;;;;;;1.43;1.43;;;;;;;;;;5055212;28;20430;-67
2022/04/29 06:12:43;;;;;;;1.38;1.38;;;;;;;;;;5051801;28;20913;-67
2022/04/29 06:15:17;;;;;;;1.50;1.40;;;22.90;51.90;;;;;;5046828;28;20191;-67
2022/04/29 06:17:43;;;;;;;1.80;1.80;;;;;;;;;;5051119;28;20449;-67
2022/04/29 06:20:09;;;;;;;2.47;2.27;;;;;;;;;;5051250;28;20399;-67
2022/04/29 06:22:35;;;;;;;3.47;3.17;;;;;;;;;;5051794;28;20475;-68
2022/04/29 06:25:01;;;;;;;3.03;2.87;;;;;;;;;;5051721;28;20470;-68
2022/04/29 06:27:27;;;;;;;3.00;2.90;;;;;;;;;;5044184;28;20426;-68
2022/04/29 06:29:53;;;;;;;5.50;3.57;;;;;;;;;;5046293;28;20227;-66
2022/04/29 06:32:19;;;;;;;2.50;2.30;;;;;;;;;;5047786;28;20521;-66
2022/04/29 06:34:45;;;;;;;2.60;2.50;;;;;;;;;;5049360;28;20643;-65
2022/04/29 06:37:11;;;;;;;2.37;2.27;;;;;;;;;;5054269;28;20454;-65
2022/04/29 06:39:37;;;;;;;2.27;2.17;;;;;;;;;;5050831;28;20514;-65
2022/04/29 06:42:04;;;;;;;2.42;2.33;;;22.50;50.90;;;;;;5049574;28;20470;-65
2022/04/29 06:44:30;;;;;;;2.10;1.90;;;;;;;;;;5054822;28;20207;-65
2022/04/29 06:46:56;;;;;;;2.00;1.90;;;;;;;;;;5064601;28;20410;-66
2022/04/29 06:49:22;;;;;;;1.90;1.80;;;;;;;;;;5058196;28;20969;-65
2022/04/29 06:51:48;;;;;;;2.40;2.30;;;;;;;;;;5070618;28;20274;-66
2022/04/29 06:54:14;;;;;;;2.80;2.00;;;;;;;;;;5069612;28;20179;-65
2022/04/29 06:56:41;;;;;;;2.37;2.27;;;;;;;;;;5050372;28;20414;-66
2022/04/29 06:59:06;;;;;;;2.43;2.33;;;;;;;;;;5067689;28;20195;-68
2022/04/29 07:01:32;;;;;;;1.80;1.80;;;;;;;;;;5060862;28;20426;-65
2022/04/29 07:03:59;;;;;;;1.93;1.83;;;;;;;;;;5045719;28;20716;-65
2022/04/29 07:06:24;;;;;;;3.53;1.80;;;;;;;;;;5055777;28;20935;-65
2022/04/29 07:08:51;;;;;;;1.93;1.83;;;;;;;;;;5050454;28;20533;-65
2022/04/29 07:11:16;;;;;;;2.23;1.87;;;;;;;;;;5050465;28;20863;-68
2022/04/29 07:13:43;;;;;;;1.90;1.80;;;;;;;;;;5050489;28;20432;-65
2022/04/29 07:16:09;;;;;;;1.50;1.50;;;;;;;;;;5051893;28;20180;-65
2022/04/29 07:18:36;;;;;;;1.70;1.60;;;;;;;;;;5067137;28;20666;-65
2022/04/29 07:21:02;;;;;;;1.60;1.50;;;;;;;;;;5059576;28;20445;-67
2022/04/29 07:23:28;;;;;;;1.97;1.87;;;;;;;;;;5043285;28;20430;-70
2022/04/29 07:25:54;;;;;;;2.40;1.80;;;;;;;;;;5056609;28;20466;-69
2022/04/29 07:28:21;;;;;;;2.00;1.90;;;;;;;;;;5051705;28;20442;-66
2022/04/29 07:30:48;;;;;;;2.40;2.27;;;;;;;;;;5053038;28;20446;-67
2022/04/29 07:33:14;;;;;;;2.50;2.40;;;22.80;51.50;;;;;;5050344;28;20452;-67
2022/04/29 07:43:55;;;;;;;2.70;2.60;;;;;;;;;;5069883;28;20421;-67
2022/04/29 07:46:21;;;;;;;2.17;2.05;;;;;;;;;;5056753;28;20457;-68
2022/04/29 07:48:48;;;;;;;2.35;2.25;;;;;;;;;;5049164;28;20831;-67
2022/04/29 07:51:14;;;;;;;2.17;2.07;;;;;;;;;;5055187;28;20172;-65
2022/04/29 07:53:39;;;;;;;2.00;1.90;;;;;;;;;;5049198;28;20985;-68
2022/04/29 07:56:06;;;;;;;4.10;2.37;;;;;;;;;;5058393;28;20446;-67
2022/04/29 07:58:32;;;;;;;2.63;2.53;;;;;;;;;;5064230;28;20438;-66
2022/04/29 08:00:58;;;;;;;1.93;1.83;;;;;;;;;;5069905;28;20471;-66
2022/04/29 08:03:24;;;;;;;2.40;2.30;;;23.30;52.30;;;;;;5064090;28;20430;-65
2022/04/29 08:05:51;;;;;;;2.57;2.37;;;;;;;;;;5048247;28;20558;-65
2022/04/29 08:08:17;;;;;;;3.53;2.67;;;;;;;;;;5061556;28;20921;-68
2022/04/29 08:10:43;;;;;;;1.90;1.80;;;;;;;;;;5053149;28;20452;-64
2022/04/29 08:13:09;;;;;;;2.07;1.90;;;;;;;;;;5057096;28;20463;-65
2022/04/29 08:15:35;;;;;;;2.53;2.13;;;;;;;;;;5055473;28;20467;-66
2022/04/29 08:18:01;;;;;;;2.60;2.50;;;;;;;;;;5056776;28;20465;-68
2022/04/29 08:20:27;;;;;;;2.30;2.20;;;;;;;;;;5063400;28;20433;-68
2022/04/29 08:22:53;;;;;;;2.10;2.10;;;;;;;;;;5050758;28;20280;-70
2022/04/29 08:25:19;;;;;;;2.20;2.17;;;;;;;;;;5064638;28;20915;-65
2022/04/29 08:27:46;;;;;;;2.43;2.33;;;23.20;61.00;;;;;;5057307;28;20924;-66
2022/04/29 08:30:12;;;;;;;2.33;2.22;;;;;;;;;;5056937;28;20445;-66
2022/04/29 08:32:39;;;;;;;2.10;2.00;;;23.20;53.00;;;;;;5064239;28;20289;-66
2022/04/29 08:35:06;;;;;;;2.03;1.93;;;21.60;52.40;;;;;;5068350;28;21200;-66
2022/04/29 08:37:32;;;;;;;3.43;1.83;;;;;;;;;;5063026;28;20429;-68
2022/04/29 08:40:00;;;;;;;2.42;2.22;;;22.90;74.50;;;;;;5058978;28;20445;-67
2022/04/29 08:42:28;;;;;;;2.50;2.30;;;23.30;53.20;;;;;;5053807;28;20183;-67
2022/04/29 08:44:53;;;;;;;1.97;1.87;;;23.10;60.00;;;;;;5056845;28;20210;-65
2022/04/29 08:47:19;;;;;;;3.70;2.30;;;;;;;;;;5062662;28;20805;-66
2022/04/29 08:49:47;;;;;;;1.97;1.87;;;23.30;53.10;;;;;;5053831;28;20200;-67
2022/04/29 08:52:14;;;;;;;1.93;1.83;;;;;;;;;;5062810;28;20504;-66
2022/04/29 09:00:20;;;;;;;3.27;1.77;;;;;;;;;;5061962;28;20449;-66
2022/04/29 09:02:46;;;;;;;2.10;2.00;;;;;;;;;;5054072;28;20480;-68
2022/04/29 09:05:12;;;;;;;2.20;2.10;;;;;;;;;;5061107;28;20458;-67
2022/04/29 09:07:51;;;;;;;2.05;1.95;;;23.40;49.10;;;;;;5058811;28;20423;-67
2022/04/29 09:10:17;;;;;;;2.20;2.10;;;;;;;;;;5064986;28;20175;-66
2022/04/29 09:12:43;;;;;;;5.43;2.23;;;;;;;;;;5056069;28;20484;-66
2022/04/29 09:15:11;;;;;;;2.20;2.10;;;23.40;53.30;;;;;;5068513;28;20187;-67
2022/04/29 09:17:40;;;;;;;2.10;2.00;;;;;;;;;;5058327;28;20264;-66
2022/04/29 09:20:26;;;;;;;2.50;2.00;;;23.40;53.00;;;;;;5062920;28;20437;-67
2022/04/29 09:22:52;;;;;;;3.40;2.20;;;;;;;;;;5064701;28;20520;-67
2022/04/29 09:25:19;;;;;;;2.60;2.50;;;;;;;;;;5052064;28;21021;-66
2022/04/29 09:27:54;;;;;;;2.45;2.30;;;23.40;48.80;;;;;;5060075;28;20577;-69
2022/04/29 09:30:37;;;;;;;2.03;1.93;;;23.50;65.80;;;;;;5061536;28;20263;-69
2022/04/29 09:33:04;;;;;;;2.00;2.00;;;23.50;77.10;;;;;;5065656;28;20933;-67
2022/04/29 09:35:40;;;;;;;1.70;1.60;;;23.80;55.40;;;;;;5059483;28;20207;-65
2022/04/29 09:40:52;;;;;;;1.57;1.57;;;23.40;58.30;;;;;;5063459;28;20533;-66
2022/04/29 09:43:31;;;;;;;2.13;2.03;;;23.40;53.10;;;;;;5064856;28;20911;-66
2022/04/29 09:46:22;;;;;;;2.03;1.93;;;23.60;68.00;;;;;;5058403;28;20226;-69
2022/04/29 09:48:54;;;;;;;1.80;1.70;;;21.80;48.40;;;;;;5056610;28;20835;-64
2022/04/29 09:51:38;;;;;;;1.60;1.60;;;23.50;49.10;;;;;;5048148;28;20508;-67
2022/04/29 09:54:12;;;;;;;2.50;2.30;;;23.40;48.90;;;;;;5052712;28;20414;-69
2022/04/29 09:56:38;;;;;;;6.57;1.90;;;23.40;52.50;;;;;;5060901;28;20974;-69
2022/04/29 09:59:04;;;;;;;2.03;1.90;;;;;;;;;;5063998;28;20465;-67
2022/04/29 10:01:30;;;;;;;2.57;2.47;;;;;;;;;;5058785;28;20505;-68
2022/04/29 10:03:56;;;;;;;1.30;1.20;;;;;;;;;;5068068;28;20575;-72
2022/04/29 10:06:24;;;;;;;2.00;2.00;;;23.50;53.50;;;;;;5060783;28;20410;-69
2022/04/29 10:08:51;;;;;;;2.13;1.97;;;23.50;51.60;;;;;;5061222;28;20449;-69
2022/04/29 10:11:22;;;;;;;1.90;1.80;;;23.50;49.10;;;;;;5055228;28;20808;-69
2022/04/29 10:13:48;;;;;;;1.90;1.90;;;23.00;50.60;;;;;;5060754;28;20786;-68
2022/04/29 10:16:17;;;;;;;2.20;2.10;;;23.40;53.10;;;;;;5054257;28;20438;-68
2022/04/29 10:21:47;;;;;;;3.97;2.30;;;;;;;;;;5053074;28;20416;-66
2022/04/29 10:24:13;;;;;;;2.03;1.93;;;;;;;;;;5067526;28;20996;-66
2022/04/29 10:26:39;;;;;;;2.10;2.00;;;23.60;54.70;;;;;;5053788;28;20521;-68
2022/04/29 10:29:06;;;;;;;1.80;1.70;;;23.50;52.60;;;;;;5055539;28;20592;-68
2022/04/29 10:31:32;;;;;;;2.40;2.30;;;;;;;;;;5050958;28;20427;-70
2022/04/29 10:34:27;;;;;;;1.70;1.60;;;23.30;53.10;;;;;;5051062;28;20437;-69
2022/04/29 10:36:53;;;;;;;2.00;1.90;;;;;;;;;;5066710;28;20620;-68
2022/04/29 10:39:21;;;;;;;1.77;1.67;;;23.50;53.10;;;;;;5054965;28;20500;-69
2022/04/29 10:42:01;;;;;;;1.33;1.33;;;23.60;55.90;;;;;;5062190;28;20422;-68
2022/04/29 10:44:27;;;;;;;1.73;1.63;;;23.30;59.50;;;;;;5064090;28;20453;-68
2022/04/29 10:46:53;;;;;;;1.43;1.33;;;23.30;77.80;;;;;;5052844;28;20222;-68
2022/04/29 10:49:19;;;;;;;1.30;1.30;;;23.60;69.80;;;;;;5066240;28;20529;-68
2022/04/29 10:51:50;;;;;;;1.30;1.30;;;23.50;52.50;;;;;;5056576;28;20183;-68
2022/04/29 10:54:42;;;;;;;1.67;1.57;;;23.50;52.50;;;;;;5058299;28;20499;-68
2022/04/29 10:57:12;;;;;;;1.57;1.47;;;;;;;;;;5066432;28;20429;-68
2022/04/29 11:00:00;;;;;;;1.97;1.23;;;23.20;52.90;;;;;;5056627;28;20450;-68
2022/04/29 11:02:27;;;;;;;1.10;1.10;;;22.90;51.90;;;;;;5056617;28;20441;-69
2022/04/29 11:04:54;;;;;;;1.60;1.50;;;23.50;52.10;;;;;;5062985;28;20989;-70
2022/04/29 11:07:36;;;;;;;1.70;1.60;;;23.50;48.40;;;;;;5066868;28;20569;-68
2022/04/29 11:10:04;;;;;;;1.20;1.20;;;23.50;77.60;;;;;;5059756;28;20438;-68
2022/04/29 11:12:30;;;;;;;1.43;1.43;;;23.50;50.70;;;;;;5057860;28;20425;-68
2022/04/29 11:15:18;;;;;;;1.23;1.23;;;23.30;80.60;;;;;;5066077;28;20920;-68
2022/04/29 11:17:44;;;;;;;1.77;1.77;;;23.40;64.40;;;;;;5051007;28;20954;-68
2022/04/29 11:20:16;;;;;;;1.20;1.20;;;23.50;48.40;;;;;;5061493;28;20426;-69
2022/04/29 11:25:56;;;;;;;1.40;1.30;;;23.50;55.00;;;;;;5044682;28;20952;-70
2022/04/29 11:28:22;;;;;;;1.23;1.23;;;23.00;52.80;;;;;;5062372;28;20449;-71
2022/04/29 11:30:50;;;;;;;1.40;1.40;;;23.50;52.30;;;;;;5054614;28;20172;-71
2022/04/29 11:33:22;;;;;;;1.57;1.47;;;23.50;52.00;;;;;;5062142;28;20415;-69
2022/04/29 11:36:00;;;;;;;1.47;1.40;;;23.30;63.60;;;;;;5057714;28;20460;-70
2022/04/29 11:38:26;;;;;;;1.70;1.60;;;;;;;;;;5063306;28;20506;-67
2022/04/29 11:40:52;;;;;;;2.33;1.57;;;;;;;;;;5052920;28;20471;-67
2022/04/29 11:43:22;;;;;;;2.05;1.50;;;24.10;52.50;;;;;;5068986;28;20418;-67
2022/04/29 11:46:05;;;;;;;1.70;1.60;;;23.70;60.60;;;;;;5061848;28;20759;-67
2022/04/29 11:48:31;;;;;;;2.08;1.98;;;;;;;;;;5062605;28;20547;-67
2022/04/29 11:50:58;;;;;;;1.77;1.67;;;23.70;59.60;;;;;;5052340;28;20201;-69
2022/04/29 11:53:24;;;;;;;2.27;1.87;;;;;;;;;;5065209;28;20423;-69
2022/04/29 11:55:50;;;;;;;2.33;2.22;;;23.70;52.60;;;;;;5058379;28;20448;-68
2022/04/29 11:58:16;;;;;;;7.03;1.67;;;;;;;;;;5057935;28;20265;-69
2022/04/29 12:00:51;;;;;;;1.80;1.70;;;23.50;58.30;;;;;;5051372;28;20509;-68
2022/04/29 12:03:22;;;;;;;2.10;2.00;;;23.90;78.70;;;;;;5059294;28;20422;-67
2022/04/29 12:05:48;;;;;;;1.35;1.35;;;;;;;;;;5057812;28;20766;-69
2022/04/29 12:08:14;;;;;;;1.60;1.60;;;23.70;71.80;;;;;;5066714;28;20195;-68
2022/04/29 12:10:46;;;;;;;1.88;1.75;;;23.80;52.30;;;;;;5052722;28;20730;-68
2022/04/29 12:13:12;;;;;;;1.63;1.53;;;23.70;77.80;;;;;;5061202;28;20186;-71
2022/04/29 12:15:39;;;;;;;1.20;1.20;;;23.70;78.10;;;;;;5056528;28;20800;-67
2022/04/29 12:18:15;;;;;;;1.73;1.63;;;23.90;48.40;;;;;;5058564;28;20218;-67
2022/04/29 12:20:41;;;;;;;3.33;1.93;;;23.60;76.80;;;;;;5065423;28;20788;-69
2022/04/29 12:23:19;;;;;;;1.40;1.30;;;24.00;48.20;;;;;;5057345;28;20778;-70
2022/04/29 12:25:46;;;;;;;1.10;1.10;;;23.80;53.80;;;;;;5060324;28;20548;-67
2022/04/29 12:28:13;;;;;;;1.43;1.43;;;24.20;78.20;;;;;;5057795;28;20492;-67
2022/04/29 12:36:15;;;;;;;1.30;1.30;;;23.30;51.60;;;;;;5057457;28;20771;-68
2022/04/29 12:38:43;;;;;;;1.60;1.50;;;23.90;51.50;;;;;;5053251;28;20442;-67
2022/04/29 12:41:22;;;;;;;1.27;1.20;;;24.00;48.00;;;;;;5052416;28;20484;-67
2022/04/29 12:43:48;;;;;;;1.30;1.30;;;;;;;;;;5055823;28;20820;-68
2022/04/29 12:46:16;;;;;;;1.47;1.37;;;22.90;51.60;;;;;;5057662;28;20576;-66
2022/04/29 12:48:52;;;;;;;1.67;1.40;;;24.00;48.00;;;;;;5065134;28;20499;-69
2022/04/29 12:51:34;;;;;;;1.57;1.50;;;24.00;47.90;;;;;;5054318;28;20554;-68
2022/04/29 12:54:05;;;;;;;1.47;1.37;;;24.00;52.00;;;;;;5061520;28;20417;-70
2022/04/29 12:56:31;;;;;;;1.27;1.17;;;;;;;;;;5069217;28;20464;-70
2022/04/29 12:58:58;;;;;;;1.30;1.30;;;24.10;59.50;;;;;;5059793;28;20441;-68
2022/04/29 13:01:25;;;;;;;1.90;1.80;;;;;;;;;;5054345;28;20440;-69
2022/04/29 13:03:55;;;;;;;1.47;1.37;;;23.70;52.50;;;;;;5059267;28;20426;-69
2022/04/29 13:06:24;;;;;;;4.60;1.40;;;24.10;47.90;;;;;;5057286;28;20472;-68
2022/04/29 13:08:57;;;;;;;1.47;1.37;;;24.20;47.90;;;;;;5047908;28;20454;-69
2022/04/29 13:11:24;;;;;;;1.90;1.80;;;24.40;54.80;;;;;;5064534;28;20433;-69
2022/04/29 13:13:53;;;;;;;1.10;1.10;;;24.30;51.40;;;;;;5058020;28;20422;-68
2022/04/29 13:16:20;;;;;;;1.40;1.40;;;24.20;51.60;;;;;;5056978;28;20418;-68
2022/04/29 13:18:47;;;;;;;1.40;1.30;;;;;;;;;;5061864;28;20461;-68
2022/04/29 13:21:14;;;;;;;1.73;1.67;;;24.00;64.10;;;;;;5065358;28;20517;-69
2022/04/29 13:23:41;;;;;;;1.10;1.10;;;24.30;51.40;;;;;;5056621;28;20451;-67
2022/04/29 13:26:08;;;;;;;2.20;1.40;;;;;;;;;;5058191;28;20507;-66
2022/04/29 13:28:35;;;;;;;1.75;1.52;;;24.30;51.30;;;;;;5059035;28;20443;-65
2022/04/29 13:31:03;;;;;;;1.60;1.60;;;24.00;59.80;;;;;;5065000;28;20185;-67
2022/04/29 13:33:29;;;;;;;1.30;1.30;;;;;;;;;;5066977;28;20426;-67
2022/04/29 13:35:55;;;;;;;1.40;1.40;;;24.30;51.50;;;;;;5062001;28;20448;-66
2022/04/29 13:38:22;;;;;;;4.53;1.50;;;;;;;;;;5064079;28;21003;-68
2022/04/29 13:40:48;;;;;;;1.47;1.37;;;23.90;55.40;;;;;;5056248;28;20419;-67
2022/04/29 13:43:14;;;;;;;2.03;1.93;;;;;;;;;;5069004;28;20486;-68
2022/04/29 13:45:41;;;;;;;1.38;1.27;;;24.10;59.80;;;;;;5058632;28;20460;-68
2022/04/29 13:48:07;;;;;;;1.80;1.57;;;23.90;77.00;;;;;;5054569;28;20446;-71
2022/04/29 13:50:34;;;;;;;1.40;1.40;;;23.90;75.10;;;;;;5062868;28;20555;-68
2022/04/29 13:53:09;;;;;;;2.30;1.33;;;;;;;;;;5063307;28;21028;-68
2022/04/29 13:55:36;;;;;;;1.83;1.73;;;24.30;65.00;;;;;;5061032;28;20413;-67
2022/04/29 13:58:02;;;;;;;2.00;1.70;;;;;;;;;;5062794;28;20207;-68
2022/04/29 14:00:28;;;;;;;1.50;1.40;;;;;;;;;;5058449;28;20429;-67
2022/04/29 14:02:54;;;;;;;1.50;1.50;;;;;;;;;;5055035;28;20422;-69
2022/04/29 14:05:23;;;;;;;1.30;1.30;;;;;;;;;;5059744;28;20477;-71
2022/04/29 14:07:49;;;;;;;1.42;1.33;;;;;;;;;;5052870;28;20451;-72
2022/04/29 14:10:15;;;;;;;1.53;1.43;;;;;;;;;;5056906;28;20226;-70
2022/04/29 14:12:41;;;;;;;1.43;1.33;;;;;;;;;;5053310;28;20427;-69
2022/04/29 14:15:09;;;;;;;1.60;1.60;;;23.90;80.10;;;;;;5061555;28;20446;-69
2022/04/29 14:17:35;;;;;;;1.60;1.50;;;;;;;;;;5050128;28;20470;-68
2022/04/29 14:20:01;;;;;;;1.80;1.80;;;;;;;;;;5054219;28;20206;-71
2022/04/29 14:22:27;;;;;;;1.30;1.30;;;;;;;;;;5066538;28;20502;-68
2022/04/29 14:24:53;;;;;;;2.67;2.20;;;;;;;;;;5053999;28;20553;-68
2022/04/29 14:27:22;;;;;;;1.58;1.58;;;;;;;;;;5051580;28;20431;-68
2022/04/29 14:29:48;;;;;;;4.00;1.70;;;;;;;;;;5052804;28;20539;-67